Latest Weather Observations for Swanbourne

IDW60901

Issued at 4:32 pm WST Sunday 1 February 2015 (issued every 10 minutes, with the page automatically refreshed every 10 minutes)

About weather observations | Map of Perth area stations | Latest observations for Perth area | Other Formats
Station Details ID: 009215 Name: SWANBOURNE Lat: -31.96 Lon: 115.76 Height: 40.96 m
Data from the previous 72 hours. | See also: Recent months at Swanbourne
Date/Time
WST
Tmp

°C
App
Tmp
°C
Dew
Point
°C
Rel
Hum
%
Delta-T

°C
Wind Press
QNH
hPa
Press
MSL
hPa
Rain
since
9 am
mm
Dir
 
Spd
km/h
Gust
km/h
Spd
kts
Gust
kts
01/04:30pm 33.7 29.9 9.7 23 13.8 ESE 20 35 11 19 - - 0.0
01/04:00pm 33.2 29.8 9.3 23 13.6 ESE 17 28 9 15 - - 0.0
01/03:30pm 34.7 31.1 10.5 23 14.1 ESE 20 35 11 19 - - 0.0
01/03:00pm 33.7 30.0 10.3 24 13.5 ESE 20 35 11 19 - - 0.0
01/02:30pm 32.8 28.3 10.2 25 13.0 E 24 37 13 20 - - 0.0
01/02:00pm 32.8 29.8 10.8 26 12.8 ESE 17 33 9 18 - - 0.0
01/01:30pm 29.7 26.5 9.8 29 11.2 E 17 33 9 18 - - 0.0
01/01:00pm 29.8 26.2 10.4 30 11.0 ENE 20 32 11 17 - - 0.0
01/12:30pm 29.5 27.3 12.0 34 10.2 ESE 15 24 8 13 - - 0.0
01/12:00pm 27.4 24.2 11.4 37 9.2 ESE 19 30 10 16 - - 0.0
01/11:30am 25.0 22.2 11.2 42 7.8 ESE 17 28 9 15 - - 0.0
01/11:00am 24.8 21.9 11.0 42 7.7 ESE 17 28 9 15 - - 0.0
01/10:30am 24.6 21.2 11.2 43 7.5 E 20 28 11 15 - - 0.0
01/10:00am 24.4 21.5 11.0 43 7.5 E 17 32 9 17 - - 0.0
01/09:30am 23.8 21.3 11.2 45 7.1 E 15 26 8 14 - - 0.0
01/09:00am 23.9 20.6 10.9 44 7.3 E 19 30 10 16 - - 0.0
01/08:30am 23.4 20.0 11.1 46 6.9 E 20 35 11 19 - - 0.0
01/08:00am 22.9 19.2 11.6 49 6.3 E 22 43 12 23 - - 0.0
01/07:30am 22.3 18.3 11.7 51 5.9 ESE 24 35 13 19 - - 0.0
01/07:00am 22.2 17.8 11.6 51 5.9 ESE 26 43 14 23 - - 0.0
01/06:30am 21.4 17.3 11.4 53 5.6 E 24 35 13 19 - - 0.0
01/06:00am 21.3 17.5 11.3 53 5.5 E 22 35 12 19 - - 0.0
01/05:30am 21.3 17.5 11.1 52 5.6 E 22 32 12 17 - - 0.0
01/05:00am 21.6 18.1 11.0 51 5.9 E 20 33 11 18 - - 0.0
01/04:30am 21.6 18.4 11.3 52 5.7 E 19 28 10 15 - - 0.0
01/04:00am 21.8 18.4 11.2 51 5.9 ESE 20 33 11 18 - - 0.0
01/03:30am 22.0 18.6 11.1 50 6.0 ESE 20 35 11 19 - - 0.0
01/03:00am 22.2 18.7 11.0 49 6.2 ESE 20 32 11 17 - - 0.0
01/02:30am 22.8 18.8 10.6 46 6.7 E 22 37 12 20 - - 0.0
01/02:00am 23.2 20.4 9.9 43 7.3 E 15 26 8 14 - - 0.0
01/01:30am 23.7 20.1 9.7 41 7.6 ESE 19 30 10 16 - - 0.0
01/01:00am 24.4 20.4 9.2 38 8.3 ESE 20 37 11 20 - - 0.0
01/12:30am 24.9 21.0 8.8 36 8.7 ESE 19 32 10 17 - - 0.0
01/12:00am 25.6 21.1 8.6 34 9.2 ESE 22 35 12 19 - - 0.0
 
Date/Time
WST
Tmp

°C
App
Tmp
°C
Dew
Point
°C
Rel
Hum
%
Delta-T

°C
Wind Press
QNH
hPa
Press
MSL
hPa
Rain
since
9 am
mm
Dir
 
Spd
km/h
Gust
km/h
Spd
kts
Gust
kts
31/11:30pm 26.1 22.2 8.6 33 9.5 ESE 19 30 10 16 - - 0.0
31/11:00pm 26.9 22.7 8.4 31 10.0 ESE 20 32 11 17 - - 0.0
31/10:30pm 27.4 23.2 8.3 30 10.4 ESE 20 35 11 19 - - 0.0
31/10:00pm 27.6 24.0 8.5 30 10.4 ESE 17 28 9 15 - - 0.0
31/09:30pm 28.1 24.1 8.4 29 10.8 ESE 19 32 10 17 - - 0.0
31/09:00pm 28.1 24.9 8.4 29 10.8 ESE 15 24 8 13 - - 0.0
31/08:30pm 28.3 25.4 8.1 28 11.0 ESE 13 20 7 11 - - 0.0
31/08:00pm 28.8 24.7 7.9 27 11.4 ESE 19 28 10 15 - - 0.0
31/07:30pm 29.0 24.7 7.0 25 11.8 E 19 30 10 16 - - 0.0
31/07:00pm 29.6 25.5 6.3 23 12.4 E 17 28 9 15 - - 0.0
31/06:30pm 30.0 25.9 6.0 22 12.7 E 17 24 9 13 - - 0.0
31/06:00pm 30.6 26.8 5.8 21 13.1 ESE 15 26 8 14 - - 0.0
31/05:30pm 31.7 26.8 5.3 19 14.0 ESE 20 32 11 17 - - 0.0
31/05:00pm 31.7 26.9 4.5 18 14.2 ESE 19 28 10 15 - - 0.0
31/04:30pm 31.8 27.6 3.8 17 14.4 E 15 22 8 12 - - 0.0
31/04:00pm 31.8 28.6 5.3 19 14.0 E 11 19 6 10 - - 0.0
31/03:30pm 31.5 28.2 6.5 21 13.5 ESE 13 19 7 10 - - 0.0
31/03:00pm 30.7 26.9 5.9 21 13.2 E 15 26 8 14 - - 0.0
31/02:30pm 30.5 27.1 7.7 24 12.5 ESE 15 28 8 15 - - 0.0
31/02:00pm 29.6 26.7 9.7 29 11.2 ESE 15 24 8 13 - - 0.0
31/01:30pm 29.2 25.5 9.3 29 11.1 ESE 19 35 10 19 - - 0.0
31/01:00pm 29.3 25.0 9.4 29 11.1 ESE 22 32 12 17 - - 0.0
31/12:30pm 30.0 26.3 9.5 28 11.5 ESE 19 33 10 18 - - 0.0
31/12:00pm 30.5 26.2 9.4 27 11.9 ESE 22 33 12 18 - - 0.0
31/11:30am 29.9 25.7 9.9 29 11.3 ESE 22 35 12 19 - - 0.0
31/11:00am 28.6 25.6 10.8 33 10.1 ESE 17 26 9 14 - - 0.0
31/10:30am 27.4 24.4 10.6 35 9.5 E 17 30 9 16 - - 0.0
31/10:00am 27.3 24.9 11.3 37 9.1 ESE 15 24 8 13 - - 0.0
31/09:30am 26.9 24.6 11.8 39 8.7 ESE 15 26 8 14 - - 0.0
31/09:00am 26.6 24.2 12.6 42 8.1 E 17 24 9 13 - - 0.0
31/08:30am 24.7 22.2 12.3 46 7.1 ESE 17 30 9 16 - - 0.0
31/08:00am 23.6 21.2 12.6 50 6.3 ESE 17 26 9 14 - - 0.0
31/07:30am 21.8 18.7 12.1 54 5.5 ESE 20 33 11 18 - - 0.0
31/07:00am 20.7 18.1 11.9 57 4.9 E 17 28 9 15 - - 0.0
31/06:30am 20.4 17.1 11.6 57 4.9 E 20 32 11 17 - - 0.0
31/06:00am 20.2 16.1 11.4 57 4.9 E 24 41 13 22 - - 0.0
31/05:30am 20.8 17.8 10.6 52 5.6 E 17 26 9 14 - - 0.0
31/05:00am 20.7 18.7 10.2 51 5.7 ESE 11 20 6 11 - - 0.0
31/04:30am 21.4 17.6 9.9 48 6.2 E 20 33 11 18 - - 0.0
31/04:00am 21.3 17.6 10.2 49 6.0 E 20 30 11 16 - - 0.0
31/03:30am 22.0 17.4 9.5 45 6.7 E 24 35 13 19 - - 0.0
31/03:00am 22.8 18.6 8.1 39 7.8 E 20 37 11 20 - - 0.0
31/02:30am 23.8 19.6 7.4 35 8.6 E 19 32 10 17 - - 0.0
31/02:00am 24.3 20.3 6.6 32 9.2 E 17 26 9 14 - - 0.0
31/01:30am 24.9 20.4 7.1 32 9.3 E 20 30 11 16 - - 0.0
31/01:00am 25.6 21.3 6.8 30 9.8 ESE 19 33 10 18 - - 0.0
31/12:30am 26.4 20.8 5.4 26 10.8 ESE 24 41 13 22 - - 0.0
31/12:00am 27.3 21.6 5.0 24 11.4 ESE 24 41 13 22 - - 0.0
 
Date/Time
WST
Tmp

°C
App
Tmp
°C
Dew
Point
°C
Rel
Hum
%
Delta-T

°C
Wind Press
QNH
hPa
Press
MSL
hPa
Rain
since
9 am
mm
Dir
 
Spd
km/h
Gust
km/h
Spd
kts
Gust
kts
30/11:30pm 28.4 22.6 4.6 22 12.2 E 24 44 13 24 - - 0.0
30/11:00pm 29.3 22.7 6.0 23 12.3 ESE 30 48 16 26 - - 0.0
30/10:48pm 29.5 23.3 6.2 23 12.4 ESE 28 48 15 26 - - 0.0
30/10:30pm 29.9 24.3 7.2 24 12.3 ESE 26 39 14 21 - - 0.0
30/10:17pm 30.3 24.4 7.5 24 12.4 ESE 28 46 15 25 - - 0.0
30/10:00pm 30.2 25.9 8.0 25 12.2 ESE 20 35 11 19 - - 0.0
30/09:30pm 29.3 26.1 9.9 30 10.9 SE 17 26 9 14 - - 0.0
30/09:00pm 28.6 26.6 10.3 32 10.3 SE 11 13 6 7 - - 0.0
30/08:30pm 28.7 27.2 10.4 32 10.4 SE 9 13 5 7 - - 0.0
30/08:00pm 29.6 28.2 9.7 29 11.2 SE 7 11 4 6 - - 0.0
30/07:30pm 30.5 29.3 9.4 27 11.9 ESE 6 7 3 4 - - 0.0
30/07:00pm 31.4 29.9 9.0 25 12.6 SE 7 11 4 6 - - 0.0
30/06:30pm 32.2 30.5 8.4 23 13.3 ESE 7 13 4 7 - - 0.0
30/06:00pm 32.9 30.8 8.4 22 13.7 SE 9 15 5 8 - - 0.0
30/05:30pm 34.3 32.0 5.8 17 15.4 E 7 15 4 8 - - 0.0
30/05:00pm 34.8 33.3 9.3 21 14.6 SE 7 11 4 6 - - 0.0
30/04:30pm 34.7 32.1 7.7 19 15.1 E 11 19 6 10 - - 0.0
30/04:00pm 35.0 32.6 7.1 18 15.4 E 9 17 5 9 - - 0.0
30/03:30pm 34.5 32.4 8.3 20 14.7 E 9 15 5 8 - - 0.0
30/03:00pm 34.8 30.9 7.0 18 15.4 ENE 17 24 9 13 - - 0.0
30/02:30pm 36.3 32.1 7.4 17 16.2 ENE 19 30 10 16 - - 0.0
30/02:00pm 36.8 31.5 6.9 16 16.7 E 24 41 13 22 - - 0.0
30/01:30pm 37.8 33.1 7.7 16 17.0 E 22 43 12 23 - - 0.0
30/01:00pm 37.0 32.7 7.9 17 16.5 E 20 37 11 20 - - 0.0
30/12:30pm 35.3 30.9 7.4 18 15.5 E 20 41 11 22 - - 0.0
30/12:00pm 35.3 32.6 8.9 20 15.1 ESE 13 19 7 10 - - 0.0
30/11:30am 34.0 31.6 8.6 21 14.3 ESE 11 20 6 11 - - 0.0
30/11:28am 34.5 32.6 10.4 23 14.0 ESE 11 20 6 11 - - 0.0
30/11:00am 29.5 29.5 12.4 35 10.0 NW 4 7 2 4 - - 0.0
30/10:30am 29.8 28.5 11.3 32 10.7 N 9 13 5 7 - - 0.0
30/10:00am 28.7 27.3 10.8 33 10.2 SE 9 13 5 7 - - 0.0
30/09:30am 25.7 25.9 12.9 45 7.4 E 4 7 2 4 - - 0.0
30/09:00am 25.8 25.1 10.0 37 8.8 ESE 4 6 2 3 - - 0.6
30/08:30am 25.6 23.8 9.4 36 8.9 E 9 17 5 9 - - 0.6
30/08:00am 24.6 21.9 10.5 41 7.8 ESE 15 24 8 13 - - 0.6
30/07:30am 23.8 22.7 10.8 44 7.2 SE 7 13 4 7 - - 0.6
30/07:00am 23.1 22.9 11.8 49 6.4 SSE 4 7 2 4 - - 0.6
30/06:30am 22.5 21.9 9.0 42 7.2 SE 2 7 1 4 - - 0.6
30/06:00am 22.2 21.1 8.3 41 7.3 S 4 11 2 6 - - 0.6
30/05:30am 21.9 20.7 9.4 45 6.7 S 6 7 3 4 - - 0.6
30/05:00am 22.3 20.4 9.1 43 7.1 SE 9 11 5 6 - - 0.6
30/04:30am 21.9 20.7 10.4 48 6.3 SSE 7 13 4 7 - - 0.6
30/04:00am 22.3 21.3 12.3 53 5.7 S 9 9 5 5 - - 0.6
30/03:30am 22.6 22.1 12.8 54 5.6 SSE 7 9 4 5 - - 0.6
30/03:00am 22.6 22.1 15.0 62 4.5 SE 11 15 6 8 - - 0.6
30/02:30am 22.3 23.3 16.8 71 3.4 SSE 7 9 4 5 - - 0.6
30/02:00am 22.8 23.6 17.3 71 3.4 S 9 9 5 5 - - 0.6
30/01:30am 23.3 23.6 16.1 64 4.4 SSE 9 9 5 5 - - 0.6
30/01:00am 24.6 23.4 11.5 44 7.4 SSE 9 9 5 5 - - 0.6
30/12:30am 25.6 24.5 12.1 43 7.7 ENE 9 13 5 7 - - 0.6
30/12:00am 26.0 25.2 11.7 41 8.2 NNE 7 9 4 5 - - 0.6
 
Date/Time
WST
Tmp

°C
App
Tmp
°C
Dew
Point
°C
Rel
Hum
%
Delta-T

°C
Wind Press
QNH
hPa
Press
MSL
hPa
Rain
since
9 am
mm
Dir
 
Spd
km/h
Gust
km/h
Spd
kts
Gust
kts
29/11:30pm 26.1 25.8 11.5 40 8.3 NE 4 7 2 4 - - 0.6
29/11:00pm 27.4 25.8 11.4 37 9.2 E 11 22 6 12 - - 0.6
29/10:30pm 27.2 24.5 11.7 38 8.9 SE 17 24 9 13 - - 0.6
29/10:00pm 26.6 24.9 12.6 42 8.1 SE 13 19 7 10 - - 0.6
29/09:30pm 25.6 25.8 16.7 58 5.5 SE 11 19 6 10 - - 0.6
29/09:00pm 25.6 26.8 19.0 67 4.2 SE 11 19 6 10 - - 0.6
29/08:30pm 25.2 26.0 19.8 72 3.5 S 15 20 8 11 - - 0.6
29/08:00pm 25.5 26.6 19.6 70 3.8 S 13 20 7 11 - - 0.6
29/07:30pm 25.4 26.8 19.5 70 3.8 S 11 22 6 12 - - 0.6
29/07:00pm 25.8 26.1 19.7 69 4.0 SSW 17 30 9 16 - - 0.6
29/06:30pm 26.3 26.2 19.9 68 4.2 SSW 20 32 11 17 - - 0.6
29/06:00pm 26.7 26.0 19.6 65 4.6 SSW 22 33 12 18 - - 0.6
29/05:30pm 27.0 26.0 19.6 64 4.8 SSW 24 35 13 19 - - 0.6
29/05:00pm 26.9 27.0 20.3 67 4.3 SSW 20 35 11 19 - - 0.6

Latest Capital City Observations: Canberra | Sydney | Melbourne | Brisbane | Adelaide | Perth | Hobart | Darwin

Other Formats:

Comma delimited format used in spreadsheet applications
http://www.bom.gov.au/fwo/IDW60901/IDW60901.94614.axf

JavaScript Object Notation format (JSON) in row-major order
http://www.bom.gov.au/fwo/IDW60901/IDW60901.94614.json